Aeroporto :
LOGIN :

Iscrizione | Disclaimer

   EN    FR    IT 

 










Sommario :    VFR   VFR Marginale   IFR   IFR Intensivo   IFR Molto Intensivo
Visibilità : 
Base nubi : 
>= 8 km
>= 3000ft
5 / 8 km
1000 / 3000 ft
1500m / 5 km
500 / 1000 ft
800 / 1500m
200 / 500 ft
< 800m
< 200 ft
Simboli :   Temporali  Nebbia  Neve Forte  Precipitazioni Forti  Vento > 20 kt
SIGMETs :   Varie  Temporali  Ghiacco  Turbolenza  Onda orograficha  Ceneri Vulcaniche






- Altitudine del aeroporto : 1106 ft


LFSO - Nancy / Ochey

ULTIMO METAR :
  • 181700Z AUTO 30003KT 240V340 9999 FEW022 OVC052 03/01 Q1028

METARs OBSOLETI :
  • 181630Z AUTO 29005KT 250V320 9999 -RA SCT016 BKN029 BKN044 03/01 Q1028
  • 181600Z AUTO 29003KT 260V320 9999 FEW022 OVC044 04/01 Q1028
  • 181530Z AUTO 29004KT 260V320 9999 OVC042 04/01 Q1027
  • 181500Z AUTO 28003KT 9999 FEW029 SCT036 OVC043 04/01 Q1027
  • 181430Z AUTO 27006KT 9999 FEW016 BKN027 OVC035 04/01 Q1027

Previsioni scadute.



MetMap, La meteo Aeronautica in un colpo d'occhio ! - Copyright ORBIFLY Dicembre 2007 - Disclaimer

ORBIFLY MET'MAP TEAM :

Programmazione e sviluppo : Alexandra Zaïnal
Concezione : Baudouin d'Aumeries
Aiuto per la programmazione : Marc-Olivier Méhu
Supporto tecnico e logistico : Manuel Goepfert
Aiuto per la traduzione : Arnaldo La Scala

Contatto : metmap@orbifly.com




FONTI E CREDITI :

   NOAA